Time;durP1;ratioP1;P1;durP2;ratioP2;P2;SDS_P1;SDS_P2;PMS_P1;PMS_P2;Temp;Humidity;BMP_temperature;BMP_pressure;BME280_temperature;BME280_humidity;BME280_pressure;Samples;Min_cycle;Max_cycle;Signal;HPM_P1;HPM_P2
2022/07/06 00:01:18;;;;;;;;;2.50;2.50;;;;;23.67;36.62;102161.78;4921555;28;45469;-56
2022/07/06 00:03:44;;;;;;;;;4.00;3.00;;;;;23.66;36.69;102166.19;4920817;28;46033;-46
2022/07/06 00:06:09;;;;;;;;;3.00;3.00;;;;;23.65;36.47;102156.53;4921329;28;45399;-47
2022/07/06 00:08:34;;;;;;;;;2.00;2.00;;;;;23.66;37.04;102165.34;4921297;28;45324;-47
2022/07/06 00:11:00;;;;;;;;;3.00;3.00;;;;;23.65;36.60;102164.47;4921112;28;45347;-47
2022/07/06 00:13:27;;;;;;;;;2.00;2.00;;;;;23.64;36.48;102160.16;4920925;28;45422;-48
2022/07/06 00:15:52;;;;;;;;;2.25;2.25;;;;;23.64;36.47;102160.16;4920654;28;45899;-43
2022/07/06 00:18:18;;;;;;;;;3.25;3.25;;;;;23.63;36.61;102156.63;4920918;28;45484;-47
2022/07/06 00:20:44;;;;;;;;;5.00;3.00;;;;;23.64;36.51;102157.50;4919679;28;45505;-51
2022/07/06 00:23:10;;;;;;;;;3.25;2.00;;;;;23.63;36.83;102161.91;4903907;28;48747;-49
2022/07/06 00:25:35;;;;;;;;;4.00;3.00;;;;;23.63;36.85;102156.63;4920863;28;45331;-46
2022/07/06 00:28:00;;;;;;;;;2.50;2.50;;;;;23.63;36.56;102158.44;4920730;28;45373;-45
2022/07/06 00:30:26;;;;;;;;;3.00;3.00;;;;;23.63;36.74;102155.78;4921305;28;45492;-54
2022/07/06 00:32:51;;;;;;;;;0.25;0.25;;;;;23.62;36.88;102154.91;4919504;28;46380;-55
2022/07/06 00:35:16;;;;;;;;;2.00;2.00;;;;;23.62;36.59;102156.72;4920639;28;45315;-49
2022/07/06 00:37:42;;;;;;;;;4.00;2.00;;;;;23.62;36.80;102154.91;4920758;28;45148;-49
2022/07/06 00:40:08;;;;;;;;;3.00;3.00;;;;;23.61;36.99;102155.84;4921359;28;45681;-47
2022/07/06 00:42:47;;;;;;;;;2.00;2.00;;;;;23.62;37.04;102154.06;4920580;28;47372;-46
2022/07/06 00:45:14;;;;;;;;;2.75;2.75;;;;;23.62;37.19;102154.06;4920565;28;45840;-47
2022/07/06 00:47:41;;;;;;;;;4.00;3.00;;;;;23.60;37.33;102146.19;4920981;28;45398;-46
2022/07/06 00:50:15;;;;;;;;;4.00;2.00;;;;;23.61;37.26;102147.91;4920480;28;45236;-51
2022/07/06 00:53:15;;;;;;;;;3.25;2.50;;;;;23.60;37.23;102148.81;4919929;28;45646;-48
2022/07/06 00:55:42;;;;;;;;;4.00;3.00;;;;;23.61;37.57;102152.34;4880521;29;45800;-58
2022/07/06 00:58:09;;;;;;;;;2.25;2.25;;;;;23.60;37.23;102156.75;4911431;28;45386;-57
2022/07/06 01:00:35;;;;;;;;;3.00;3.00;;;;;23.60;37.47;102150.63;4920748;28;45500;-56
2022/07/06 01:03:00;;;;;;;;;3.75;3.00;;;;;23.59;37.25;102154.19;4920069;28;45342;-51
2022/07/06 01:05:26;;;;;;;;;2.75;2.75;;;;;23.58;37.32;102158.66;4920419;28;45384;-47
2022/07/06 01:07:53;;;;;;;;;3.00;3.00;;;;;23.59;37.30;102148.91;4920119;28;45308;-51
2022/07/06 01:10:20;;;;;;;;;3.00;3.00;;;;;23.57;37.69;102149.00;4920479;28;45599;-48
2022/07/06 01:12:47;;;;;;;;;3.00;3.00;;;;;23.57;37.84;102145.47;4919890;28;45323;-49
2022/07/06 01:15:21;;;;;;;;;3.50;3.50;;;;;23.58;37.75;102147.19;4920159;28;45488;-47
2022/07/06 01:17:47;;;;;;;;;2.50;2.50;;;;;23.59;37.01;102159.50;4919998;28;45802;-50
2022/07/06 01:20:20;;;;;;;;;4.00;3.00;;;;;23.57;37.29;102153.41;4920326;28;45465;-50
2022/07/06 01:22:47;;;;;;;;;3.00;3.00;;;;;23.56;37.53;102160.50;4919723;28;45441;-49
2022/07/06 01:25:12;;;;;;;;;3.50;3.50;;;;;23.56;37.65;102156.97;4920008;28;45363;-48
2022/07/06 01:27:40;;;;;;;;;4.00;4.00;;;;;23.56;37.39;102156.97;4920497;28;45395;-52
2022/07/06 01:30:12;;;;;;;;;3.00;2.00;;;;;23.56;37.53;102159.63;4920044;28;45308;-53
2022/07/06 01:32:38;;;;;;;;;3.00;3.00;;;;;23.55;37.33;102163.19;4920328;28;45599;-50
2022/07/06 01:35:05;;;;;;;;;2.75;2.75;;;;;23.55;37.67;102155.25;4919223;28;45438;-49
2022/07/06 01:37:31;;;;;;;;;1.00;1.00;;;;;23.53;37.78;102149.22;4919875;28;45246;-48
2022/07/06 01:40:04;;;;;;;;;1.00;1.00;;;;;23.53;37.35;102146.56;4920032;28;45725;-50
2022/07/06 01:42:30;;;;;;;;;4.75;4.00;;;;;23.54;37.90;102156.19;4918240;28;46126;-47
2022/07/06 01:44:56;;;;;;;;;2.25;2.25;;;;;23.52;37.88;102158.06;4919506;28;45394;-49
2022/07/06 01:47:22;;;;;;;;;4.00;3.00;;;;;23.51;37.73;102151.91;4919881;28;45286;-54
2022/07/06 01:49:47;;;;;;;;;5.00;3.75;;;;;23.51;37.73;102151.91;4919464;28;45318;-50
2022/07/06 01:52:13;;;;;;;;;3.00;3.00;;;;;23.52;37.61;102152.78;4919676;28;45224;-51
2022/07/06 01:54:38;;;;;;;;;4.25;3.00;;;;;23.52;37.63;102152.78;4919662;28;49840;-50
2022/07/06 01:57:04;;;;;;;;;3.00;3.00;;;;;23.52;37.69;102152.78;4919459;28;45306;-50
2022/07/06 01:59:29;;;;;;;;;2.00;2.00;;;;;23.52;37.69;102150.13;4919735;28;45460;-53
2022/07/06 02:01:54;;;;;;;;;3.00;3.00;;;;;23.51;37.74;102148.41;4918802;28;45348;-51
2022/07/06 02:04:20;;;;;;;;;2.75;2.75;;;;;23.50;37.87;102144.06;4919419;28;45258;-54
2022/07/06 02:06:45;;;;;;;;;3.00;3.00;;;;;23.49;37.90;102144.97;4918041;28;45312;-46
2022/07/06 02:09:10;;;;;;;;;3.00;3.00;;;;;23.49;38.12;102145.81;4920053;28;45607;-50
2022/07/06 02:11:36;;;;;;;;;2.50;2.00;;;;;23.49;37.67;102147.63;4919191;28;46133;-50
2022/07/06 02:14:01;;;;;;;;;3.00;3.00;;;;;23.48;37.77;102152.09;4919083;28;45883;-50
2022/07/06 02:16:26;;;;;;;;;3.25;3.00;;;;;23.48;37.71;102146.78;4919542;28;45362;-48
2022/07/06 02:18:52;;;;;;;;;2.50;1.75;;;;;23.47;37.70;102148.56;4919265;28;45517;-52
2022/07/06 02:21:17;;;;;;;;;2.75;2.75;;;;;23.47;37.76;102145.91;4919094;28;45365;-54
2022/07/06 02:23:42;;;;;;;;;3.00;3.00;;;;;23.49;37.89;102142.34;4919038;28;45442;-47
2022/07/06 02:26:08;;;;;;;;;5.00;2.25;;;;;23.47;37.90;102145.91;4918039;28;45402;-53
2022/07/06 02:28:33;;;;;;;;;4.00;4.00;;;;;23.46;37.96;102138.91;4919451;28;45318;-57
2022/07/06 02:30:58;;;;;;;;;2.50;2.00;;;;;23.46;37.87;102138.91;4918591;28;45407;-48
2022/07/06 02:33:24;;;;;;;;;3.00;3.00;;;;;23.46;37.71;102138.91;4918517;28;57429;-49
2022/07/06 02:35:49;;;;;;;;;3.25;3.00;;;;;23.46;37.67;102138.91;4918894;28;45487;-48
2022/07/06 02:38:14;;;;;;;;;3.00;3.00;;;;;23.46;38.11;102127.47;4919295;28;45283;-49
2022/07/06 02:40:40;;;;;;;;;4.50;3.25;;;;;23.46;37.79;102130.97;4919318;28;45325;-51
2022/07/06 02:43:05;;;;;;;;;2.50;2.50;;;;;23.45;37.82;102121.31;4918784;28;45275;-47
2022/07/06 02:45:31;;;;;;;;;3.00;3.00;;;;;23.45;37.84;102131.03;4919131;28;45307;-50
2022/07/06 02:47:57;;;;;;;;;3.00;3.00;;;;;23.44;37.86;102124.03;4918978;28;45547;-49
2022/07/06 02:50:23;;;;;;;;;5.00;3.00;;;;;23.45;37.76;102131.88;4917537;28;47404;-53
2022/07/06 02:52:48;;;;;;;;;2.25;2.25;;;;;23.45;38.27;102137.19;4918650;28;45841;-57
2022/07/06 02:55:14;;;;;;;;;2.75;2.75;;;;;23.43;37.76;102139.03;4918907;28;45545;-53
2022/07/06 02:57:39;;;;;;;;;3.50;3.25;;;;;23.44;38.20;102151.34;4919325;28;45573;-51
2022/07/06 03:00:05;;;;;;;;;4.00;4.00;;;;;23.43;38.02;102144.31;4918391;28;46039;-47
2022/07/06 03:02:31;;;;;;;;;4.00;4.00;;;;;23.43;38.04;102146.97;4918771;28;45726;-52
2022/07/06 03:04:56;;;;;;;;;5.00;3.00;;;;;23.43;37.90;102154.06;4918658;28;45868;-50
2022/07/06 03:07:22;;;;;;;;;2.25;2.25;;;;;23.43;38.24;102148.78;4918927;28;45951;-53
2022/07/06 03:09:47;;;;;;;;;3.75;3.75;;;;;23.43;38.16;102154.91;4918228;28;45475;-49
2022/07/06 03:12:13;;;;;;;;;4.00;4.00;;;;;23.42;37.86;102153.22;4918577;28;45365;-48
2022/07/06 03:14:38;;;;;;;;;2.25;2.25;;;;;23.42;38.35;102160.28;4918137;28;45370;-49
2022/07/06 03:17:03;;;;;;;;;7.00;4.00;;;;;23.40;38.19;102156.84;4918477;28;45400;-43
2022/07/06 03:19:29;;;;;;;;;4.00;3.00;;;;;23.40;38.13;102159.50;4918367;28;46278;-46
2022/07/06 03:21:54;;;;;;;;;4.25;3.00;;;;;23.39;38.32;102152.47;4918360;28;45357;-47
2022/07/06 03:24:19;;;;;;;;;3.50;3.50;;;;;23.40;37.96;102159.50;4918100;28;53995;-47
2022/07/06 03:26:44;;;;;;;;;3.75;3.75;;;;;23.37;38.19;102157.00;4918389;28;45536;-49
2022/07/06 03:29:10;;;;;;;;;4.25;4.00;;;;;23.29;38.01;102157.38;4918465;28;50370;-47
2022/07/06 03:31:35;;;;;;;;;1.00;1.00;;;;;23.21;38.29;102154.19;4918397;28;45330;-46
2022/07/06 03:34:00;;;;;;;;;4.00;4.00;;;;;23.14;38.38;102159.75;4918064;28;45220;-51
2022/07/06 03:36:26;;;;;;;;;4.00;4.00;;;;;23.07;38.45;102160.97;4918532;28;45370;-51
2022/07/06 03:38:51;;;;;;;;;4.00;4.00;;;;;23.03;38.67;102158.53;4917917;28;46339;-50
2022/07/06 03:41:16;;;;;;;;;8.00;5.00;;;;;22.96;38.52;102166.72;4918240;28;45247;-47
2022/07/06 03:43:42;;;;;;;;;4.00;4.00;;;;;22.93;38.50;102171.28;4918102;28;45159;-47
2022/07/06 03:46:07;;;;;;;;;3.00;3.00;;;;;22.90;38.55;102171.41;4918756;28;45318;-48
2022/07/06 03:48:32;;;;;;;;;4.75;4.75;;;;;22.84;38.52;102160.22;4917797;28;46309;-44
2022/07/06 03:50:58;;;;;;;;;7.00;4.00;;;;;22.80;38.73;102163.91;4917765;28;45200;-46
2022/07/06 03:53:23;;;;;;;;;8.50;5.75;;;;;22.73;38.80;102165.09;4918228;28;45177;-45
2022/07/06 03:58:33;;;;;;;;;7.00;4.00;;;;;22.59;39.41;102173.63;4917907;28;45653;-45
2022/07/06 04:00:59;;;;;;;;;2.50;2.50;;;;;22.58;39.50;102171.03;4917701;28;45885;-42
2022/07/06 04:03:24;;;;;;;;;4.75;4.75;;;;;22.56;39.32;102168.47;4917915;28;45487;-48
2022/07/06 04:05:49;;;;;;;;;6.50;4.25;;;;;22.57;39.34;102174.59;4916599;28;45363;-44
2022/07/06 04:08:15;;;;;;;;;4.25;4.25;;;;;22.53;39.35;102173.88;4917742;28;46270;-46
2022/07/06 04:10:40;;;;;;;;;4.00;4.00;;;;;22.50;39.57;102166.97;4918208;28;45328;-47
2022/07/06 04:13:06;;;;;;;;;4.75;4.25;;;;;22.48;39.66;102179.38;4917671;28;45386;-50
2022/07/06 04:15:31;;;;;;;;;5.25;4.00;;;;;22.47;39.65;102180.28;4918216;28;45466;-45
2022/07/06 04:17:56;;;;;;;;;4.25;4.25;;;;;22.46;39.48;102178.56;4917321;28;45510;-47
2022/07/06 04:20:23;;;;;;;;;5.00;5.00;;;;;22.46;39.41;102173.28;4917722;28;45373;-44
2022/07/06 04:22:49;;;;;;;;;8.00;4.75;;;;;22.43;39.53;102177.84;4917673;28;45437;-48
2022/07/06 04:25:14;;;;;;;;;4.00;4.00;;;;;22.41;39.47;102184.97;4918388;28;45565;-46
2022/07/06 04:27:40;;;;;;;;;4.00;4.00;;;;;22.38;39.75;102180.66;4921188;28;45367;-49
2022/07/06 04:30:06;;;;;;;;;5.50;5.00;;;;;22.37;39.64;102178.94;4920643;28;45347;-45
2022/07/06 04:32:31;;;;;;;;;4.00;4.00;;;;;22.35;39.79;102180.78;4921061;28;45216;-46
2022/07/06 04:34:57;;;;;;;;;4.00;4.00;;;;;22.32;39.74;102183.56;4919339;28;45569;-46
2022/07/06 04:37:23;;;;;;;;;4.25;3.25;;;;;22.29;39.55;102179.25;4920753;28;46323;-49
2022/07/06 04:39:48;;;;;;;;;4.75;4.00;;;;;22.27;39.99;102182.88;4920603;28;45352;-46
2022/07/06 04:42:13;;;;;;;;;6.25;4.00;;;;;22.28;39.95;102177.53;4920935;28;45319;-45
2022/07/06 04:44:39;;;;;;;;;5.00;3.75;;;;;22.25;40.11;102175.03;4920926;28;46681;-45
2022/07/06 04:47:04;;;;;;;;;5.25;4.25;;;;;22.25;40.11;102175.03;4920269;28;50070;-48
2022/07/06 04:49:29;;;;;;;;;6.50;6.50;;;;;22.23;39.90;102175.06;4920686;28;45382;-46
2022/07/06 04:51:55;;;;;;;;;6.50;4.75;;;;;22.16;39.92;102168.34;4920348;28;45728;-47
2022/07/06 04:54:20;;;;;;;;;3.00;3.00;;;;;22.16;40.24;102172.78;4920860;28;45358;-54
2022/07/06 04:56:46;;;;;;;;;4.50;4.50;;;;;22.14;40.08;102179.91;4920129;28;46234;-50
2022/07/06 04:59:12;;;;;;;;;7.75;6.00;;;;;22.12;40.08;102185.22;4920527;28;45434;-47
2022/07/06 05:01:37;;;;;;;;;5.25;5.25;;;;;22.12;40.28;102182.56;4919607;28;45362;-48
2022/07/06 05:04:02;;;;;;;;;5.25;5.25;;;;;22.13;40.52;102181.66;4920540;28;45378;-46
2022/07/06 05:06:28;;;;;;;;;5.50;4.00;;;;;22.13;40.23;102181.66;4920460;28;46023;-47
2022/07/06 05:08:53;;;;;;;;;4.75;4.75;;;;;22.14;40.49;102175.47;4920212;28;45357;-46
2022/07/06 05:11:18;;;;;;;;;4.00;4.00;;;;;22.14;40.30;102178.09;4920413;28;45387;-46
2022/07/06 05:13:44;;;;;;;;;4.25;4.25;;;;;22.16;40.17;102181.53;4920245;28;45364;-45
2022/07/06 05:16:09;;;;;;;;;5.00;5.00;;;;;22.17;40.52;102174.47;4920275;28;46208;-47
2022/07/06 05:18:35;;;;;;;;;7.50;5.00;;;;;22.19;40.53;102176.16;4920055;28;45410;-47
2022/07/06 05:21:00;;;;;;;;;4.00;4.00;;;;;22.22;40.35;102181.28;4919876;28;45402;-45
2022/07/06 05:23:26;;;;;;;;;3.50;3.50;;;;;22.22;40.15;102178.63;4920472;28;45349;-45
2022/07/06 05:25:52;;;;;;;;;6.75;5.75;;;;;22.25;40.48;102180.31;4919759;28;47220;-47
2022/07/06 05:28:17;;;;;;;;;7.75;4.75;;;;;22.26;40.58;102186.44;4920162;28;45323;-47
2022/07/06 05:30:42;;;;;;;;;6.00;5.25;;;;;22.25;40.46;102185.59;4919815;28;45260;-45
2022/07/06 05:33:07;;;;;;;;;5.00;5.00;;;;;22.26;40.48;102175.88;4920556;28;45541;-45
2022/07/06 05:35:33;;;;;;;;;4.25;4.25;;;;;22.27;40.46;102182.88;4919339;28;55032;-47
2022/07/06 05:37:58;;;;;;;;;4.75;4.75;;;;;22.29;40.78;102183.69;4918909;28;45323;-47
2022/07/06 05:40:23;;;;;;;;;5.50;5.00;;;;;22.28;40.54;102174.88;4920068;28;45392;-44
2022/07/06 05:42:49;;;;;;;;;4.00;4.00;;;;;22.30;40.79;102183.59;4919901;28;45295;-45
2022/07/06 05:45:14;;;;;;;;;7.25;6.50;;;;;22.31;40.77;102181.84;4919567;28;45536;-43
2022/07/06 05:50:23;;;;;;;;;5.00;5.00;;;;;22.33;40.83;102187.88;4919824;28;45425;-46
2022/07/06 05:52:57;;;;;;;;;4.00;4.00;;;;;22.33;40.65;102188.78;4919770;28;45559;-45
2022/07/06 05:55:22;;;;;;;;;7.25;6.00;;;;;22.34;40.55;102194.91;4919653;28;45386;-48
2022/07/06 05:57:49;;;;;;;;;6.75;5.75;;;;;22.35;40.57;102201.91;4919321;28;45389;-46
2022/07/06 06:00:15;;;;;;;;;5.75;5.75;;;;;22.33;40.63;102201.97;4919770;28;45298;-44
2022/07/06 06:02:42;;;;;;;;;8.75;6.75;;;;;22.34;40.76;102208.97;4920123;28;45593;-47
2022/07/06 06:05:08;;;;;;;;;8.00;6.00;;;;;22.34;40.81;102202.81;4919665;28;46207;-47
2022/07/06 06:07:35;;;;;;;;;5.00;5.00;;;;;22.35;40.61;102208.06;4919372;28;45877;-46
2022/07/06 06:10:03;;;;;;;;;6.00;5.75;;;;;22.36;40.63;102203.63;4919381;28;45358;-45
2022/07/06 06:12:28;;;;;;;;;7.50;6.25;;;;;22.38;40.41;102207.06;4919580;28;45332;-44
2022/07/06 06:14:54;;;;;;;;;6.25;6.25;;;;;22.37;40.31;102207.97;4919056;28;45434;-45
2022/07/06 06:17:19;;;;;;;;;7.00;6.00;;;;;22.34;40.28;102205.47;4919197;28;52930;-44
2022/07/06 06:19:44;;;;;;;;;6.67;5.33;;;;;22.34;40.52;102216.03;4918516;28;57422;-43
2022/07/06 06:22:10;;;;;;;;;8.25;5.50;;;;;22.34;40.15;102216.03;4919788;28;45260;-45
2022/07/06 06:24:35;;;;;;;;;9.50;6.50;;;;;22.33;40.24;102214.31;4917920;28;46893;-46
2022/07/06 06:27:00;;;;;;;;;8.75;7.00;;;;;22.28;40.55;102206.56;4918785;28;45449;-50
2022/07/06 06:29:26;;;;;;;;;6.00;5.75;;;;;22.27;40.23;102207.50;4919203;28;45307;-46
2022/07/06 06:31:51;;;;;;;;;8.50;5.25;;;;;22.23;40.27;102204.13;4918928;28;45666;-51
2022/07/06 06:34:16;;;;;;;;;12.75;7.75;;;;;22.19;40.07;102197.28;4919023;28;46008;-47
2022/07/06 06:36:42;;;;;;;;;5.50;4.00;;;;;22.20;40.20;102199.00;4918836;28;45401;-49
2022/07/06 06:39:07;;;;;;;;;6.00;6.00;;;;;22.26;40.14;102205.81;4919336;28;45397;-51
2022/07/06 06:41:32;;;;;;;;;11.25;6.00;;;;;22.32;40.29;102208.19;4918902;28;45565;-50
2022/07/06 06:43:58;;;;;;;;;5.75;5.75;;;;;22.37;40.15;102203.56;4918101;28;45429;-50
2022/07/06 06:46:23;;;;;;;;;9.00;7.00;;;;;22.44;40.10;102206.81;4917787;28;45450;-56
2022/07/06 06:48:48;;;;;;;;;5.00;5.00;;;;;22.48;40.08;102203.16;4917020;28;45439;-53
2022/07/06 06:51:13;;;;;;;;;7.00;5.00;;;;;22.52;39.74;102210.03;4918416;28;45490;-54
2022/07/06 06:53:39;;;;;;;;;5.25;4.00;;;;;22.57;39.76;102212.47;4919061;28;46429;-57
2022/07/06 06:56:05;;;;;;;;;6.75;5.75;;;;;22.60;39.86;102214.13;4918230;28;45267;-56
2022/07/06 06:58:30;;;;;;;;;7.50;5.75;;;;;22.65;39.54;102217.44;4918668;28;45270;-55
2022/07/06 07:00:55;;;;;;;;;5.75;5.50;;;;;22.67;39.48;102219.09;4918559;28;45199;-54
2022/07/06 07:03:20;;;;;;;;;7.75;6.75;;;;;22.69;39.32;102222.53;4918595;28;46327;-53
2022/07/06 07:05:46;;;;;;;;;10.00;6.25;;;;;22.72;39.33;102225.94;4918472;28;45348;-50
2022/07/06 07:08:11;;;;;;;;;4.00;4.00;;;;;22.74;39.11;102218.81;4918706;28;45366;-48
2022/07/06 07:10:37;;;;;;;;;6.25;5.50;;;;;22.77;39.10;102219.53;4918912;28;45476;-50
2022/07/06 07:13:02;;;;;;;;;6.25;5.00;;;;;22.79;38.97;102228.25;4917999;28;45216;-47
2022/07/06 07:15:27;;;;;;;;;4.75;4.00;;;;;22.82;39.34;102228.13;4917113;28;45285;-45
2022/07/06 07:17:53;;;;;;;;;6.00;6.00;;;;;22.83;38.91;102219.28;4918194;28;45367;-47
2022/07/06 07:20:18;;;;;;;;;6.75;5.00;;;;;22.85;39.00;102222.72;4918664;28;45549;-47
2022/07/06 07:22:43;;;;;;;;;5.25;5.25;;;;;22.89;38.92;102218.16;4918193;28;45235;-44
2022/07/06 07:25:09;;;;;;;;;5.50;5.00;;;;;22.91;39.18;102226.00;4918420;28;45323;-48
2022/07/06 07:27:34;;;;;;;;;6.00;5.00;;;;;22.93;38.92;102222.38;4918325;28;45337;-48
2022/07/06 07:30:00;;;;;;;;;7.50;6.00;;;;;22.95;38.65;102222.31;4918257;28;45480;-52
2022/07/06 07:32:25;;;;;;;;;5.75;5.75;;;;;22.96;38.81;102224.03;4917911;28;46980;-48
2022/07/06 07:34:51;;;;;;;;;6.00;6.00;;;;;22.99;38.45;102229.16;4917485;28;45418;-44
2022/07/06 07:37:16;;;;;;;;;5.75;5.00;;;;;23.01;38.40;102229.97;4917975;28;45411;-50
2022/07/06 07:39:42;;;;;;;;;4.50;4.50;;;;;23.03;38.41;102224.63;4918079;28;45441;-45
2022/07/06 07:42:07;;;;;;;;;8.25;6.00;;;;;23.03;38.59;102225.47;4918112;28;46085;-47
2022/07/06 07:44:33;;;;;;;;;5.50;5.50;;;;;23.07;38.41;102223.56;4917855;28;45490;-47
2022/07/06 07:46:58;;;;;;;;;6.00;5.00;;;;;23.07;38.41;102211.22;4916525;28;45455;-51
2022/07/06 07:49:23;;;;;;;;;9.00;6.50;;;;;23.09;38.56;102208.47;4918173;28;45726;-47
2022/07/06 07:51:49;;;;;;;;;6.00;6.00;;;;;23.09;38.25;102214.66;4917504;28;51057;-48
2022/07/06 07:54:14;;;;;;;;;5.50;5.00;;;;;23.11;38.34;102217.22;4917928;28;45394;-47
2022/07/06 07:56:42;;;;;;;;;6.25;4.00;;;;;23.11;37.98;102212.75;4918160;28;45399;-45
2022/07/06 07:59:08;;;;;;;;;6.00;4.50;;;;;23.12;37.83;102214.50;4918489;28;45573;-50
2022/07/06 08:01:33;;;;;;;;;4.75;3.75;;;;;23.14;38.08;102214.44;4919939;28;45901;-46
2022/07/06 08:03:59;;;;;;;;;5.00;5.00;;;;;23.14;38.13;102207.34;4920951;28;45226;-45
2022/07/06 08:06:24;;;;;;;;;8.00;8.00;;;;;23.14;37.91;102210.00;4921075;28;45217;-47
2022/07/06 08:08:50;;;;;;;;;4.50;4.50;;;;;23.15;37.83;102214.34;4921199;28;45549;-49
2022/07/06 08:11:15;;;;;;;;;6.75;5.75;;;;;23.16;38.25;102205.50;4920761;28;46036;-47
2022/07/06 08:13:40;;;;;;;;;7.75;6.00;;;;;23.17;37.88;102207.22;4921343;28;45364;-47
2022/07/06 08:16:06;;;;;;;;;7.00;6.50;;;;;23.18;38.09;102208.06;4920887;28;45374;-48
2022/07/06 08:18:31;;;;;;;;;5.00;5.00;;;;;23.17;38.06;102207.22;4921302;28;45303;-48
2022/07/06 08:20:56;;;;;;;;;7.00;5.00;;;;;23.20;37.86;102208.06;4920641;28;45459;-46
2022/07/06 08:23:23;;;;;;;;;8.25;6.75;;;;;23.20;37.62;102208.88;4920874;28;45381;-51
2022/07/06 08:25:48;;;;;;;;;6.50;6.50;;;;;23.22;37.68;102207.03;4919408;28;45455;-46
2022/07/06 08:28:14;;;;;;;;;6.75;6.25;;;;;23.23;37.82;102206.13;4921053;28;45443;-50
2022/07/06 08:30:39;;;;;;;;;6.00;6.00;;;;;23.25;38.05;102213.97;4920964;28;46217;-46
2022/07/06 08:33:04;;;;;;;;;6.75;6.00;;;;;23.26;37.92;102210.41;4920353;28;45458;-50
2022/07/06 10:28:48;;;;;;;;;7.75;5.00;;;;;23.68;36.76;102171.44;5230168;23;46275;-52
2022/07/06 10:31:17;;;;;;;;;7.50;7.00;;;;;23.68;37.09;102174.94;4901957;28;45358;-48
2022/07/06 10:33:44;;;;;;;;;9.00;8.00;;;;;23.69;36.78;102181.94;4918687;28;45370;-50
2022/07/06 10:36:10;;;;;;;;;11.75;11.00;;;;;23.69;37.15;102184.59;4919392;28;45498;-51
2022/07/06 10:38:36;;;;;;;;;15.00;12.00;;;;;23.70;37.09;102185.47;4919235;28;45301;-51
2022/07/06 10:41:07;;;;;;;;;15.00;12.75;;;;;23.69;37.49;102171.34;4918401;28;45525;-48
2022/07/06 10:43:35;;;;;;;;;13.25;11.75;;;;;23.70;36.89;102177.53;4918980;28;45219;-52
2022/07/06 10:46:19;;;;;;;;;15.25;11.25;;;;;23.71;37.20;102184.50;4918773;28;45439;-52
2022/07/06 10:48:45;;;;;;;;;8.50;7.00;;;;;23.71;37.03;102182.72;4918646;28;45521;-51
2022/07/06 10:51:12;;;;;;;;;10.00;8.00;;;;;23.71;36.69;102177.44;4918993;28;46278;-55
2022/07/06 10:53:39;;;;;;;;;11.00;7.50;;;;;23.71;37.15;102180.09;4918921;28;45379;-50
2022/07/06 10:56:10;;;;;;;;;8.25;6.25;;;;;23.72;36.67;102184.44;4901480;28;45287;-51
2022/07/06 10:58:51;;;;;;;;;7.00;6.00;;;;;23.72;37.15;102175.63;4918856;28;45486;-48
2022/07/06 11:01:18;;;;;;;;;7.50;5.75;;;;;23.73;36.76;102172.94;4918534;28;46169;-52
2022/07/06 11:04:04;;;;;;;;;5.00;5.00;;;;;23.74;36.80;102179.06;4918378;28;45950;-52
2022/07/06 11:06:34;;;;;;;;;5.75;4.50;;;;;23.74;37.30;102173.78;4918607;28;45414;-51
2022/07/06 11:09:06;;;;;;;;;5.00;5.00;;;;;23.74;37.16;102174.66;4901779;28;45265;-52
2022/07/06 11:11:31;;;;;;;;;4.00;4.00;;;;;23.75;36.80;102180.78;4918512;28;46343;-52
2022/07/06 11:14:15;;;;;;;;;5.00;5.00;;;;;23.76;36.54;102164.81;4918266;28;45290;-52
2022/07/06 11:16:46;;;;;;;;;7.00;6.00;;;;;23.75;36.95;102149.91;4918851;28;45380;-57
2022/07/06 11:19:14;;;;;;;;;5.00;4.00;;;;;23.77;36.90;102163.06;4918285;28;45395;-50
2022/07/06 11:21:43;;;;;;;;;7.00;5.50;;;;;23.79;36.84;102155.91;4918560;28;45350;-50
2022/07/06 11:24:11;;;;;;;;;5.00;4.00;;;;;23.81;37.21;102154.03;4918595;28;45172;-51
2022/07/06 11:26:38;;;;;;;;;5.25;5.25;;;;;23.82;36.58;102152.22;4918620;28;45353;-53
2022/07/06 11:29:06;;;;;;;;;5.00;5.00;;;;;23.83;37.25;102146.00;4918209;28;45267;-50
2022/07/06 11:31:42;;;;;;;;;6.75;6.75;;;;;23.82;37.34;102150.44;4917461;28;45462;-48
2022/07/06 11:34:11;;;;;;;;;5.00;4.00;;;;;23.84;37.10;102159.16;4918392;28;45836;-46
2022/07/06 11:36:37;;;;;;;;;7.75;5.50;;;;;23.87;37.20;102152.84;4920991;28;45479;-50
2022/07/06 11:39:05;;;;;;;;;7.50;5.00;;;;;23.87;37.40;102150.19;4921714;28;45646;-49
2022/07/06 11:41:31;;;;;;;;;7.50;6.00;;;;;23.89;36.88;102149.22;4921536;28;47002;-48
2022/07/06 11:43:56;;;;;;;;;6.50;5.75;;;;;23.90;37.52;102147.41;4921434;28;45426;-51
2022/07/06 11:46:27;;;;;;;;;7.00;7.00;;;;;23.91;36.96;102143.84;4921827;28;45410;-52
2022/07/06 11:48:55;;;;;;;;;9.25;8.00;;;;;23.92;36.94;102145.56;4921409;28;45439;-51
2022/07/06 11:51:22;;;;;;;;;8.00;7.00;;;;;23.94;37.23;102135.75;4921383;28;46651;-52
2022/07/06 11:53:52;;;;;;;;;5.00;5.00;;;;;23.93;37.06;102129.59;4903923;28;45851;-51
2022/07/06 11:56:22;;;;;;;;;7.75;7.75;;;;;23.94;37.04;102125.16;4921535;28;45322;-50
2022/07/06 11:58:51;;;;;;;;;8.75;6.50;;;;;23.94;37.08;102122.50;4921264;28;45503;-50
2022/07/06 12:01:17;;;;;;;;;7.50;5.50;;;;;23.96;36.95;102128.63;4921437;28;47089;-51
2022/07/06 12:03:43;;;;;;;;;7.75;7.75;;;;;23.96;36.69;102131.28;4920998;28;45416;-46
2022/07/06 12:06:20;;;;;;;;;7.50;6.50;;;;;23.97;37.15;102117.09;4921662;28;45355;-46
2022/07/06 12:08:51;;;;;;;;;8.25;6.75;;;;;23.98;37.02;102116.13;4920210;28;45395;-46
2022/07/06 12:11:23;;;;;;;;;6.00;6.00;;;;;23.99;36.67;102117.84;4921120;28;45475;-52
2022/07/06 12:13:54;;;;;;;;;7.50;7.00;;;;;24.00;36.96;102118.72;4920893;28;45307;-48
2022/07/06 12:16:23;;;;;;;;;6.75;6.75;;;;;24.00;37.11;102111.63;4921305;28;45378;-50
2022/07/06 12:18:49;;;;;;;;;6.25;6.25;;;;;24.01;36.98;102112.50;4920902;28;45250;-48
2022/07/06 12:21:17;;;;;;;;;7.00;6.75;;;;;24.01;36.94;102107.22;4920965;28;46007;-48
2022/07/06 12:23:45;;;;;;;;;8.75;6.25;;;;;24.02;36.55;102109.78;4920773;28;45409;-49
2022/07/06 12:26:13;;;;;;;;;6.00;6.00;;;;;24.03;37.02;102111.50;4921379;28;45364;-49
2022/07/06 12:28:38;;;;;;;;;5.25;5.00;;;;;24.04;36.49;102114.97;4921270;28;45280;-50
2022/07/06 12:31:04;;;;;;;;;7.00;7.00;;;;;24.05;37.00;102109.63;4920584;28;45280;-53
2022/07/06 12:33:29;;;;;;;;;9.00;7.00;;;;;24.05;36.69;102109.63;4920714;28;45461;-50
2022/07/06 12:35:56;;;;;;;;;7.00;7.00;;;;;24.05;36.54;102101.69;4920710;28;45227;-48
2022/07/06 12:38:25;;;;;;;;;6.50;5.00;;;;;24.05;36.59;102096.38;4920914;28;45712;-54
2022/07/06 12:40:50;;;;;;;;;7.25;5.75;;;;;24.07;36.60;102099.81;4920489;28;46357;-52
2022/07/06 12:43:34;;;;;;;;;6.00;6.00;;;;;24.08;36.91;102100.66;4920626;28;45472;-48
2022/07/06 12:46:27;;;;;;;;;6.50;6.50;;;;;24.08;36.93;102104.19;4920635;28;45338;-49
2022/07/06 12:48:57;;;;;;;;;6.25;6.25;;;;;24.09;36.19;102103.22;4920606;28;45342;-49
2022/07/06 12:51:22;;;;;;;;;6.50;6.00;;;;;24.09;36.39;102105.88;4920480;28;46312;-48
2022/07/06 12:53:49;;;;;;;;;5.50;5.50;;;;;24.11;36.40;102100.50;4920277;28;45306;-50
2022/07/06 12:56:16;;;;;;;;;6.00;5.75;;;;;24.11;36.65;102089.91;4920528;28;45369;-49
2022/07/06 12:59:00;;;;;;;;;6.00;5.50;;;;;24.11;36.13;102091.69;4920925;28;45325;-51
2022/07/06 13:01:26;;;;;;;;;5.25;5.00;;;;;24.11;36.37;102086.41;4920313;28;46481;-53
2022/07/06 13:03:57;;;;;;;;;5.00;5.00;;;;;24.11;36.43;102089.91;4920093;28;45886;-48
2022/07/06 13:06:37;;;;;;;;;6.75;6.50;;;;;24.11;36.18;102084.63;4920519;28;45291;-49
2022/07/06 13:09:02;;;;;;;;;8.00;6.00;;;;;24.11;36.13;102081.97;4920174;28;45390;-51
2022/07/06 13:11:28;;;;;;;;;3.75;3.75;;;;;24.12;36.70;102077.50;4920166;28;46622;-46
2022/07/06 13:13:53;;;;;;;;;5.00;5.00;;;;;24.12;36.33;102072.22;4920023;28;45480;-49
2022/07/06 13:16:18;;;;;;;;;9.75;7.00;;;;;24.12;35.91;102062.50;4920316;28;45424;-47
2022/07/06 13:18:44;;;;;;;;;5.75;5.75;;;;;24.14;36.25;102059.75;4920235;28;45553;-48
2022/07/06 13:21:09;;;;;;;;;5.25;5.25;;;;;24.14;36.24;102059.75;4920427;28;46022;-48